Time;durP1;ratioP1;P1;durP2;ratioP2;P2;SDS_P1;SDS_P2;PMS_P1;PMS_P2;Temp;Humidity;BMP_temperature;BMP_pressure;BME280_temperature;BME280_humidity;BME280_pressure;Samples;Min_cycle;Max_cycle;Signal;HPM_P1;HPM_P2
2022/04/13 00:02:22;;;;;;;14.10;8.27;;;13.00;99.90;;;;;;4957392;28;92556;-34
2022/04/13 00:04:48;;;;;;;8.13;7.38;;;12.90;99.90;;;;;;4955978;28;94104;-34
2022/04/13 00:07:13;;;;;;;12.50;9.10;;;12.90;99.90;;;;;;4956403;28;95805;-35
2022/04/13 00:09:39;;;;;;;8.73;7.90;;;12.80;99.90;;;;;;4956148;28;94072;-34
2022/04/13 00:12:05;;;;;;;11.98;9.00;;;12.70;99.90;;;;;;4957545;28;93596;-33
2022/04/13 00:14:31;;;;;;;8.80;8.00;;;12.70;99.90;;;;;;4956691;28;93257;-34
2022/04/13 00:16:56;;;;;;;9.07;7.93;;;12.70;99.90;;;;;;4957797;28;94960;-37
2022/04/13 00:19:23;;;;;;;7.88;7.10;;;12.70;99.90;;;;;;4959321;28;94604;-38
2022/04/13 00:21:49;;;;;;;8.13;7.35;;;12.70;99.90;;;;;;4959484;28;93916;-35
2022/04/13 00:24:15;;;;;;;9.15;7.85;;;12.70;99.90;;;;;;4960124;28;92415;-37
2022/04/13 00:26:41;;;;;;;10.30;8.82;;;12.70;99.90;;;;;;4999741;22;94720;-34
2022/04/13 00:29:06;;;;;;;10.95;8.13;;;12.70;99.90;;;;;;5018622;28;94364;-34
2022/04/13 00:31:32;;;;;;;13.07;8.60;;;12.70;99.90;;;;;;5019122;28;93178;-33
2022/04/13 00:33:58;;;;;;;17.90;8.43;;;12.60;99.90;;;;;;5018688;28;94515;-33
2022/04/13 00:36:23;;;;;;;8.73;7.78;;;12.70;99.90;;;;;;5018536;28;94268;-38
2022/04/13 00:38:49;;;;;;;11.07;8.32;;;12.60;99.90;;;;;;5018833;28;94553;-36
2022/04/13 00:41:14;;;;;;;9.93;7.47;;;12.60;99.90;;;;;;5019389;28;92621;-35
2022/04/13 00:43:40;;;;;;;8.85;7.97;;;12.50;99.90;;;;;;5019189;28;94569;-35
2022/04/13 00:46:06;;;;;;;13.07;8.02;;;12.60;99.90;;;;;;5018450;28;94912;-34
2022/04/13 00:48:37;;;;;;;13.38;8.45;;;12.60;99.90;;;;;;5019395;28;93546;-38
2022/04/13 00:51:03;;;;;;;7.85;7.07;;;12.60;99.90;;;;;;5019180;28;94404;-38
2022/04/13 00:53:30;;;;;;;8.60;7.70;;;12.50;99.90;;;;;;5018843;28;93051;-38
2022/04/13 00:55:58;;;;;;;9.98;7.68;;;12.50;99.90;;;;;;5017370;28;96263;-34
2022/04/13 00:58:27;;;;;;;11.57;8.52;;;12.50;99.90;;;;;;5018353;28;95502;-35
2022/04/13 01:00:53;;;;;;;;;;;12.60;99.90;;;;;;5019447;28;92622;-35
2022/04/13 01:03:22;;;;;;;10.95;8.85;;;12.70;99.90;;;;;;5020724;28;93764;-37
2022/04/13 01:05:49;;;;;;;14.52;8.80;;;12.80;99.90;;;;;;5018223;28;94998;-35
2022/04/13 01:08:17;;;;;;;11.20;9.68;;;12.80;99.90;;;;;;5018408;28;96325;-36
2022/04/13 01:10:44;;;;;;;11.15;9.18;;;12.80;99.90;;;;;;5017869;28;93650;-36
2022/04/13 01:13:11;;;;;;;9.65;8.70;;;12.80;99.90;;;;;;5019086;28;92723;-34
2022/04/13 01:15:37;;;;;;;14.68;10.32;;;12.80;99.90;;;;;;5017951;28;94220;-38
2022/04/13 01:18:03;;;;;;;11.43;9.65;;;12.80;99.90;;;;;;5017256;28;94862;-36
2022/04/13 01:20:29;;;;;;;11.57;9.77;;;12.90;99.90;;;;;;5017824;28;95481;-37
2022/04/13 01:22:55;;;;;;;11.07;9.98;;;12.90;99.90;;;;;;5018681;28;92890;-35
2022/04/13 01:25:20;;;;;;;11.40;10.25;;;13.00;99.90;;;;;;5017208;28;94515;-34
2022/04/13 01:27:46;;;;;;;12.15;10.40;;;13.00;99.90;;;;;;5016908;28;93551;-34
2022/04/13 01:30:12;;;;;;;12.07;10.60;;;13.00;99.90;;;;;;5017551;28;93250;-37
2022/04/13 01:32:38;;;;;;;13.32;9.65;;;13.00;99.90;;;;;;5017354;28;93060;-38
2022/04/13 01:35:04;;;;;;;15.48;11.27;;;13.00;99.90;;;;;;5018275;28;94919;-34
2022/04/13 01:37:30;;;;;;;14.05;11.20;;;13.00;99.90;;;;;;5017264;28;95424;-34
2022/04/13 01:39:55;;;;;;;18.23;10.50;;;13.10;99.90;;;;;;5017846;28;93347;-34
2022/04/13 01:42:21;;;;;;;13.63;11.75;;;13.10;99.90;;;;;;5016461;28;93741;-34
2022/04/13 01:44:48;;;;;;;13.00;10.57;;;13.00;99.90;;;;;;5016374;28;95638;-37
2022/04/13 01:47:14;;;;;;;13.38;11.98;;;12.80;99.90;;;;;;5017145;28;95568;-34
2022/04/13 01:49:40;;;;;;;12.77;11.23;;;12.90;99.90;;;;;;5017336;28;92603;-33
2022/04/13 01:52:07;;;;;;;13.23;11.88;;;12.70;99.90;;;;;;5017737;28;92817;-36
2022/04/13 01:54:33;;;;;;;16.67;11.45;;;12.60;99.90;;;;;;5017170;28;95867;-37
2022/04/13 01:56:59;;;;;;;11.43;10.25;;;12.60;99.90;;;;;;5016593;28;94445;-34
2022/04/13 01:59:24;;;;;;;16.98;11.07;;;12.40;99.90;;;;;;5018081;28;93768;-35
2022/04/13 02:01:50;;;;;;;16.65;10.88;;;12.40;99.90;;;;;;5017129;28;93388;-35
2022/04/13 02:04:26;;;;;;;13.55;10.95;;;12.40;99.90;;;;;;5016968;28;94260;-38
2022/04/13 02:06:53;;;;;;;15.75;12.30;;;12.30;99.90;;;;;;5016620;28;96038;-34
2022/04/13 02:09:19;;;;;;;15.40;11.90;;;12.30;99.90;;;;;;5016507;28;94433;-36
2022/04/13 02:11:45;;;;;;;13.48;10.95;;;12.20;99.90;;;;;;5016805;28;93778;-39
2022/04/13 02:14:12;;;;;;;14.80;11.25;;;12.10;99.90;;;;;;5017073;28;94890;-36
2022/04/13 02:16:39;;;;;;;12.48;11.20;;;12.10;99.90;;;;;;5015613;28;94415;-34
2022/04/13 02:19:07;;;;;;;16.13;12.35;;;12.10;99.90;;;;;;5017141;28;94079;-35
2022/04/13 02:21:35;;;;;;;11.75;10.55;;;12.10;99.90;;;;;;5016666;28;94418;-35
2022/04/13 02:24:01;;;;;;;16.15;12.75;;;12.20;99.90;;;;;;5017317;28;94484;-34
2022/04/13 02:26:26;;;;;;;12.55;11.25;;;12.20;99.90;;;;;;5016168;28;94277;-34
2022/04/13 02:28:53;;;;;;;14.70;12.00;;;12.10;99.90;;;;;;5016585;28;94153;-36
2022/04/13 02:31:19;;;;;;;17.60;12.77;;;12.00;99.90;;;;;;4998286;28;95693;-35
2022/04/13 02:33:44;;;;;;;14.27;11.88;;;12.00;99.90;;;;;;5015432;28;95761;-36
2022/04/13 02:36:10;;;;;;;12.00;10.82;;;11.90;99.90;;;;;;5016834;28;95708;-36
2022/04/13 02:38:36;;;;;;;12.43;11.23;;;11.80;99.90;;;;;;5015508;27;94415;-36
2022/04/13 02:41:02;;;;;;;13.38;12.15;;;11.70;99.90;;;;;;5016415;28;94054;-36
2022/04/13 02:43:28;;;;;;;12.73;11.52;;;11.70;99.90;;;;;;5016676;28;94761;-33
2022/04/13 02:45:54;;;;;;;17.60;12.90;;;11.70;99.90;;;;;;5015615;28;94547;-38
2022/04/13 02:48:21;;;;;;;14.02;12.23;;;11.80;99.90;;;;;;5017889;28;94637;-34
2022/04/13 02:50:46;;;;;;;14.52;11.90;;;11.80;99.90;;;;;;5015941;28;92226;-34
2022/04/13 02:53:12;;;;;;;15.73;12.73;;;11.70;99.90;;;;;;5016699;28;94640;-40
2022/04/13 02:55:37;;;;;;;19.27;13.23;;;11.60;99.90;;;;;;5015704;28;94958;-36
2022/04/13 02:58:03;;;;;;;16.60;13.65;;;11.70;99.90;;;;;;5015515;28;95522;-38
2022/04/13 03:00:29;;;;;;;16.80;11.90;;;11.70;99.90;;;;;;5016299;28;93295;-33
2022/04/13 03:02:55;;;;;;;15.02;13.15;;;11.70;99.90;;;;;;5015709;28;95146;-38
2022/04/13 03:05:21;;;;;;;13.52;12.30;;;11.70;99.90;;;;;;5016187;28;95292;-36
2022/04/13 03:07:46;;;;;;;16.50;12.90;;;11.70;99.90;;;;;;5016348;28;93050;-36
2022/04/13 03:10:12;;;;;;;16.15;12.75;;;11.70;99.90;;;;;;5016198;28;93716;-34
2022/04/13 03:12:38;;;;;;;14.65;13.27;;;11.60;99.90;;;;;;5016145;28;95675;-35
2022/04/13 03:15:05;;;;;;;13.98;12.48;;;11.70;99.90;;;;;;5016163;28;93932;-33
2022/04/13 03:17:32;;;;;;;14.88;12.30;;;11.60;99.90;;;;;;5016804;28;94455;-38
2022/04/13 03:19:57;;;;;;;17.80;12.90;;;11.60;99.90;;;;;;5015557;28;92277;-34
2022/04/13 03:22:24;;;;;;;18.23;13.88;;;11.40;99.90;;;;;;5015619;28;96553;-34
2022/04/13 03:24:51;;;;;;;16.55;12.48;;;11.30;99.90;;;;;;5015997;28;95449;-37
2022/04/13 03:27:17;;;;;;;14.80;13.30;;;11.30;99.90;;;;;;5016262;28;93708;-34
2022/04/13 03:29:43;;;;;;;18.13;12.55;;;11.20;99.90;;;;;;5015457;28;93572;-33
2022/04/13 03:32:08;;;;;;;14.63;13.02;;;11.40;99.90;;;;;;5015892;28;94786;-36
2022/04/13 03:34:34;;;;;;;14.75;13.18;;;11.40;99.90;;;;;;5015117;28;94394;-38
2022/04/13 03:37:00;;;;;;;20.75;12.98;;;11.40;99.90;;;;;;5016241;28;94195;-34
2022/04/13 03:39:26;;;;;;;16.40;13.32;;;11.50;99.90;;;;;;5016279;28;92815;-36
2022/04/13 03:41:53;;;;;;;15.63;14.02;;;11.50;99.90;;;;;;5014786;28;93417;-33
2022/04/13 03:44:18;;;;;;;17.08;14.25;;;11.50;99.90;;;;;;5016372;28;95597;-34
2022/04/13 03:46:44;;;;;;;15.27;13.73;;;11.60;99.90;;;;;;5015327;28;94680;-35
2022/04/13 03:49:10;;;;;;;17.75;14.52;;;11.60;99.90;;;;;;5015730;28;94198;-38
2022/04/13 03:51:36;;;;;;;17.63;13.65;;;11.60;99.90;;;;;;5016729;27;94127;-33
2022/04/13 03:54:02;;;;;;;15.50;13.98;;;11.60;99.90;;;;;;5019024;28;94576;-33
2022/04/13 03:56:29;;;;;;;15.70;13.65;;;11.60;99.90;;;;;;5019212;28;93565;-35
2022/04/13 03:58:58;;;;;;;16.07;14.57;;;11.50;99.90;;;;;;5019460;28;93075;-33
2022/04/13 04:01:25;;;;;;;23.95;15.25;;;11.50;99.90;;;;;;5019066;28;95174;-33
2022/04/13 04:03:51;;;;;;;20.60;16.08;;;11.60;99.90;;;;;;5018514;28;94645;-38
2022/04/13 04:06:18;;;;;;;15.82;14.13;;;11.60;99.90;;;;;;5019217;28;92727;-35
2022/04/13 04:08:43;;;;;;;19.08;15.25;;;11.60;99.90;;;;;;5018933;28;92892;-35
2022/04/13 04:11:09;;;;;;;16.98;14.23;;;11.60;99.90;;;;;;5018062;28;95807;-35
2022/04/13 04:13:35;;;;;;;18.15;16.20;;;11.60;99.90;;;;;;5018929;28;95539;-35
2022/04/13 04:16:01;;;;;;;17.60;15.45;;;11.70;99.90;;;;;;5018798;28;93349;-35
2022/04/13 04:18:27;;;;;;;23.13;14.20;;;11.80;99.90;;;;;;5018799;28;92246;-35
2022/04/13 04:20:52;;;;;;;17.08;15.05;;;11.80;99.90;;;;;;5018284;28;94736;-34
2022/04/13 04:23:19;;;;;;;25.98;16.42;;;11.80;99.90;;;;;;5018797;28;95029;-37
2022/04/13 04:25:44;;;;;;;19.63;15.15;;;11.90;99.90;;;;;;5019629;28;93967;-34
2022/04/13 04:28:10;;;;;;;23.85;16.23;;;11.90;99.90;;;;;;5018700;28;93757;-37
2022/04/13 04:30:40;;;;;;;17.63;15.50;;;11.90;99.90;;;;;;5017534;28;93605;-37
2022/04/13 04:33:06;;;;;;;18.52;16.38;;;11.80;99.90;;;;;;5018721;28;94617;-36
2022/04/13 04:35:32;;;;;;;18.55;14.60;;;11.80;99.90;;;;;;5018515;28;94221;-34
2022/04/13 04:37:59;;;;;;;19.05;15.48;;;11.70;99.90;;;;;;5017979;28;93874;-36
2022/04/13 04:40:26;;;;;;;17.55;15.82;;;11.70;99.90;;;;;;5018238;28;95133;-35
2022/04/13 04:42:52;;;;;;;21.90;16.23;;;11.60;99.90;;;;;;5018671;28;94292;-33
2022/04/13 04:45:19;;;;;;;18.40;16.15;;;11.50;99.90;;;;;;5018308;28;94826;-37
2022/04/13 04:47:49;;;;;;;19.08;15.30;;;11.50;99.90;;;;;;5018476;28;93695;-38
2022/04/13 04:50:15;;;;;;;17.38;15.25;;;11.40;99.90;;;;;;5017987;28;95128;-36
2022/04/13 04:52:45;;;;;;;19.63;17.10;;;11.40;99.90;;;;;;5018331;28;94736;-34
2022/04/13 04:55:16;;;;;;;23.10;18.75;;;11.40;99.90;;;;;;5018907;28;95335;-33
2022/04/13 04:57:42;;;;;;;25.73;17.45;;;11.30;99.90;;;;;;5018168;28;94065;-37
2022/04/13 05:00:13;;;;;;;18.52;16.58;;;11.20;99.90;;;;;;5017418;28;96638;-35
2022/04/13 05:02:39;;;;;;;18.58;16.60;;;11.20;99.90;;;;;;5017465;27;97458;-33
2022/04/13 05:05:06;;;;;;;21.63;17.05;;;11.20;99.90;;;;;;5017592;28;93371;-33
2022/04/13 05:07:32;;;;;;;21.15;17.58;;;11.30;99.90;;;;;;5018279;28;92765;-33
2022/04/13 05:10:00;;;;;;;19.88;17.25;;;11.20;99.90;;;;;;5017628;28;94890;-36
2022/04/13 05:12:27;;;;;;;17.67;15.45;;;11.30;99.90;;;;;;5017120;28;94600;-36
2022/04/13 05:14:54;;;;;;;18.08;16.33;;;11.20;99.90;;;;;;5017670;28;93416;-34
2022/04/13 05:17:21;;;;;;;22.87;18.03;;;11.20;99.90;;;;;;5018093;28;92158;-35
2022/04/13 05:19:47;;;;;;;29.10;17.13;;;11.30;99.90;;;;;;5017179;28;94836;-35
2022/04/13 05:22:14;;;;;;;24.60;19.33;;;11.40;99.90;;;;;;5017177;28;93773;-38
2022/04/13 05:24:39;;;;;;;25.95;18.10;;;11.40;99.90;;;;;;5017528;28;93984;-35
2022/04/13 05:27:07;;;;;;;28.08;16.70;;;11.40;99.90;;;;;;5016750;28;93278;-36
2022/04/13 05:29:33;;;;;;;25.75;19.30;;;11.40;99.90;;;;;;5017098;28;94703;-36
2022/04/13 05:31:58;;;;;;;25.30;16.65;;;11.50;99.90;;;;;;5017326;28;94606;-35
2022/04/13 05:34:24;;;;;;;35.38;18.02;;;11.60;99.90;;;;;;5017838;28;93066;-34
2022/04/13 05:36:49;;;;;;;26.63;19.17;;;11.60;99.90;;;;;;5017655;28;94598;-35
2022/04/13 05:39:15;;;;;;;22.67;18.77;;;11.70;99.90;;;;;;5017224;28;94706;-34
2022/04/13 05:41:41;;;;;;;22.70;18.73;;;11.80;99.90;;;;;;5017461;28;94068;-33
2022/04/13 05:44:07;;;;;;;25.35;18.45;;;11.80;99.90;;;;;;5017773;28;92145;-33
2022/04/13 05:46:33;;;;;;;20.63;18.42;;;11.90;99.90;;;;;;5017077;28;93237;-36
2022/04/13 05:48:59;;;;;;;24.10;17.05;;;12.00;99.90;;;;;;5016829;28;95526;-36
2022/04/13 05:51:25;;;;;;;26.63;18.08;;;12.10;99.90;;;;;;5017124;28;94565;-33
2022/04/13 05:53:51;;;;;;;24.83;17.92;;;12.10;99.90;;;;;;5016397;28;93705;-33
2022/04/13 05:56:16;;;;;;;19.17;15.85;;;12.20;99.90;;;;;;5017137;28;96547;-35
2022/04/13 05:58:42;;;;;;;26.00;17.00;;;12.20;99.90;;;;;;5016260;28;94911;-37
2022/04/13 06:01:09;;;;;;;27.63;17.35;;;12.30;99.90;;;;;;5017379;28;94682;-35
2022/04/13 06:03:34;;;;;;;24.58;18.33;;;12.30;99.90;;;;;;5017412;28;94135;-38
2022/04/13 06:06:00;;;;;;;28.70;19.40;;;12.40;99.90;;;;;;5016743;28;93277;-37
2022/04/13 06:08:25;;;;;;;36.08;19.52;;;12.50;99.90;;;;;;5017219;28;94973;-33
2022/04/13 06:10:51;;;;;;;24.80;19.98;;;12.50;99.90;;;;;;5016678;28;94659;-34
2022/04/13 06:13:16;;;;;;;22.88;19.77;;;12.60;99.90;;;;;;5016637;27;94694;-36
2022/04/13 06:15:44;;;;;;;22.75;19.58;;;12.60;99.90;;;;;;5015786;28;94373;-35
2022/04/13 06:18:10;;;;;;;25.27;21.27;;;12.60;99.90;;;;;;5016291;28;94810;-37
2022/04/13 06:20:36;;;;;;;22.75;20.35;;;12.70;99.90;;;;;;5016269;28;95503;-34
2022/04/13 06:23:01;;;;;;;21.25;18.48;;;12.60;99.90;;;;;;5016757;28;93077;-36
2022/04/13 06:25:27;;;;;;;21.27;18.80;;;12.70;99.90;;;;;;5017699;28;94294;-34
2022/04/13 06:27:52;;;;;;;27.20;19.98;;;12.80;99.90;;;;;;5015914;28;94575;-36
2022/04/13 06:30:18;;;;;;;23.20;19.25;;;12.80;99.90;;;;;;5016804;28;94497;-34
2022/04/13 06:32:45;;;;;;;24.92;20.02;;;12.90;99.90;;;;;;5015751;28;92229;-34
2022/04/13 06:35:16;;;;;;;24.65;19.55;;;12.90;99.90;;;;;;5016488;28;94293;-34
2022/04/13 06:37:44;;;;;;;25.23;19.63;;;13.00;99.90;;;;;;5015867;28;95895;-35
2022/04/13 06:40:11;;;;;;;26.80;19.77;;;13.10;99.90;;;;;;5015694;28;95666;-36
2022/04/13 06:42:37;;;;;;;24.40;21.25;;;13.20;99.90;;;;;;5016850;28;94049;-34
2022/04/13 06:45:04;;;;;;;22.40;19.45;;;13.30;99.90;;;;;;5016463;28;92767;-37
2022/04/13 06:47:30;;;;;;;24.13;19.92;;;13.40;99.90;;;;;;5015752;28;96862;-34
2022/04/13 06:49:56;;;;;;;27.05;20.45;;;13.50;99.90;;;;;;5016528;28;94521;-36
2022/04/13 06:52:21;;;;;;;22.05;19.55;;;13.70;99.90;;;;;;5016278;28;93746;-34
2022/04/13 06:54:47;;;;;;;23.45;18.17;;;13.90;99.90;;;;;;5016033;28;92344;-33
2022/04/13 06:57:13;;;;;;;31.42;20.33;;;14.10;99.90;;;;;;5015810;28;94707;-34
2022/04/13 06:59:38;;;;;;;31.50;20.38;;;14.40;99.90;;;;;;5015770;28;95177;-36
2022/04/13 07:02:10;;;;;;;25.17;20.80;;;14.60;99.90;;;;;;5016581;28;93196;-34
2022/04/13 07:04:36;;;;;;;26.13;20.92;;;14.60;99.90;;;;;;5015786;28;94569;-37
2022/04/13 07:07:02;;;;;;;26.40;18.52;;;14.70;99.90;;;;;;5015890;28;95070;-35
2022/04/13 07:09:28;;;;;;;24.55;19.30;;;14.90;99.90;;;;;;5015495;28;94528;-34
2022/04/13 07:11:54;;;;;;;25.48;18.90;;;15.10;99.90;;;;;;5016159;28;93871;-35
2022/04/13 07:14:20;;;;;;;29.85;17.35;;;15.30;99.90;;;;;;5016252;28;93555;-35
2022/04/13 07:16:45;;;;;;;23.02;17.70;;;15.50;99.90;;;;;;5015382;28;94707;-38
2022/04/13 07:19:11;;;;;;;20.67;16.40;;;15.70;99.90;;;;;;5016954;28;94519;-34
2022/04/13 07:21:37;;;;;;;18.30;16.38;;;15.90;99.90;;;;;;5015708;28;92152;-35
2022/04/13 07:24:03;;;;;;;19.98;16.52;;;15.60;99.90;;;;;;5016759;28;94770;-35
2022/04/13 07:26:29;;;;;;;23.83;16.42;;;15.60;99.90;;;;;;5017614;28;95189;-34
2022/04/13 07:28:54;;;;;;;24.98;17.10;;;15.70;99.90;;;;;;5018820;28;95616;-36
2022/04/13 07:31:20;;;;;;;20.80;15.90;;;15.90;99.90;;;;;;5019799;28;94223;-36
2022/04/13 07:33:45;;;;;;;17.60;15.55;;;16.20;99.90;;;;;;5018859;28;92283;-34
2022/04/13 07:36:14;;;;;;;20.95;14.48;;;16.50;99.90;;;;;;5019850;28;93487;-36
2022/04/13 07:38:39;;;;;;;;;;;16.60;99.90;;;;;;5018984;28;94642;-34
2022/04/13 07:41:05;;;;;;;14.25;11.70;;;16.70;99.90;;;;;;5020910;28;92153;-33
2022/04/13 07:43:31;;;;;;;15.98;11.45;;;16.90;99.90;;;;;;5020019;28;93632;-37
2022/04/13 07:45:56;;;;;;;19.42;12.35;;;16.80;99.90;;;;;;5018590;28;96029;-34
2022/04/13 07:48:22;;;;;;;15.00;10.38;;;17.00;99.90;;;;;;5019452;28;95286;-35
2022/04/13 07:50:48;;;;;;;10.98;9.88;;;17.10;99.90;;;;;;5018978;28;94045;-35
2022/04/13 07:53:14;;;;;;;15.20;11.48;;;17.30;99.90;;;;;;5019516;28;94421;-34
2022/04/13 07:55:40;;;;;;;12.32;11.07;;;17.30;99.90;;;;;;5016311;28;94464;-36
2022/04/13 07:58:06;;;;;;;20.25;11.23;;;17.60;99.90;;;;;;5016600;28;94734;-36
2022/04/13 08:00:32;;;;;;;16.50;11.00;;;17.10;99.90;;;;;;4999206;28;92254;-39
2022/04/13 08:02:58;;;;;;;14.13;9.57;;;17.10;99.90;;;;;;5016967;28;94383;-35
2022/04/13 08:05:24;;;;;;;14.10;10.63;;;17.00;99.90;;;;;;5016882;28;95450;-35
2022/04/13 08:07:50;;;;;;;16.25;8.55;;;16.90;99.90;;;;;;5017219;28;93749;-37
2022/04/13 08:10:16;;;;;;;16.75;9.43;;;16.90;99.90;;;;;;5018053;28;92909;-36
2022/04/13 08:12:41;;;;;;;20.85;10.05;;;16.90;99.90;;;;;;5017547;28;93218;-36
2022/04/13 08:15:08;;;;;;;10.40;9.40;;;16.90;99.90;;;;;;5016224;28;95558;-34
2022/04/13 08:17:34;;;;;;;11.15;9.35;;;17.00;99.90;;;;;;5012244;27;95553;-36
2022/04/13 08:19:59;;;;;;;13.82;9.80;;;17.00;99.90;;;;;;5002946;28;92758;-38
2022/04/13 08:22:26;;;;;;;11.65;10.30;;;17.00;99.90;;;;;;5016996;28;94154;-35
2022/04/13 08:24:52;;;;;;;12.13;9.43;;;16.90;99.90;;;;;;5010728;27;96118;-36
2022/04/13 08:27:19;;;;;;;10.35;8.63;;;16.70;99.90;;;;;;5015886;27;95005;-38
2022/04/13 08:29:46;;;;;;;18.23;9.27;;;16.60;99.90;;;;;;5017297;27;94117;-34
2022/04/13 08:32:15;;;;;;;13.55;9.82;;;16.50;99.90;;;;;;5016646;27;92988;-35
2022/04/13 08:34:40;;;;;;;27.27;11.25;;;16.50;99.90;;;;;;5016039;27;94553;-38
2022/04/13 08:37:06;;;;;;;18.88;10.30;;;16.50;99.90;;;;;;5015070;28;94615;-38
2022/04/13 08:39:32;;;;;;;15.73;10.20;;;16.50;99.90;;;;;;5014780;28;93777;-38
2022/04/13 08:42:10;;;;;;;17.95;10.93;;;16.30;99.90;;;;;;5016573;28;93363;-37
2022/04/13 08:44:51;;;;;;;16.85;11.18;;;16.40;99.90;;;;;;5016205;28;94733;-38
2022/04/13 08:47:19;;;;;;;12.98;10.52;;;16.70;99.90;;;;;;5015751;27;94484;-38
2022/04/13 08:49:45;;;;;;;10.95;9.77;;;16.70;99.90;;;;;;5016542;27;94299;-34
2022/04/13 08:52:14;;;;;;;13.77;9.60;;;16.70;99.90;;;;;;5016362;28;93117;-35
2022/04/13 08:55:06;;;;;;;17.40;11.73;;;16.60;99.90;;;;;;5016227;27;94687;-36
2022/04/13 08:57:40;;;;;;;15.45;12.23;;;16.60;99.90;;;;;;5016044;27;94803;-35
2022/04/13 09:00:17;;;;;;;13.27;11.50;;;16.50;99.90;;;;;;5015835;28;93312;-36
2022/04/13 09:03:20;;;;;;;14.52;12.65;;;16.50;99.90;;;;;;5015513;27;94422;-38
2022/04/13 09:05:50;;;;;;;17.45;12.60;;;17.00;99.90;;;;;;5014587;28;95597;-35
2022/04/13 09:08:37;;;;;;;16.92;11.15;;;17.40;99.90;;;;;;5016010;28;94056;-34
2022/04/13 09:11:04;;;;;;;17.13;12.03;;;17.40;99.90;;;;;;5015779;27;94214;-36
2022/04/13 09:13:32;;;;;;;20.73;15.65;;;17.80;99.90;;;;;;5015569;27;92610;-38
2022/04/13 09:15:58;;;;;;;16.88;13.70;;;17.70;99.90;;;;;;5014587;27;94770;-35
2022/04/13 09:18:24;;;;;;;19.33;13.57;;;17.70;99.90;;;;;;5015672;28;94752;-38
2022/04/13 09:20:50;;;;;;;23.73;15.63;;;17.70;99.90;;;;;;5014769;27;93623;-37
2022/04/13 09:23:16;;;;;;;22.52;13.60;;;18.00;99.90;;;;;;5015718;27;92829;-38
2022/04/13 09:25:43;;;;;;;17.08;12.45;;;18.30;99.90;;;;;;5014810;27;96377;-34
2022/04/13 09:28:08;;;;;;;19.50;12.57;;;18.10;99.90;;;;;;5015134;28;94152;-37
2022/04/13 09:30:34;;;;;;;13.93;12.38;;;18.20;99.90;;;;;;5015836;28;93189;-35
2022/04/13 09:33:02;;;;;;;13.60;11.88;;;18.30;99.90;;;;;;5014792;28;93542;-36
2022/04/13 09:35:31;;;;;;;12.85;9.98;;;18.40;99.90;;;;;;5014636;27;94463;-35
2022/04/13 09:38:01;;;;;;;12.10;10.75;;;18.70;99.90;;;;;;5014568;28;94769;-35
2022/04/13 09:40:32;;;;;;;15.65;10.88;;;19.10;99.90;;;;;;5015330;28;92322;-34
2022/04/13 09:43:12;;;;;;;13.90;10.95;;;19.30;99.90;;;;;;5014821;28;93478;-37
2022/04/13 09:45:41;;;;;;;14.30;12.45;;;19.10;99.90;;;;;;5014137;27;94620;-37
2022/04/13 09:48:09;;;;;;;16.38;11.40;;;19.00;99.90;;;;;;5015340;27;94726;-37
2022/04/13 09:50:35;;;;;;;12.35;9.80;;;19.30;99.90;;;;;;5014852;28;92922;-40
2022/04/13 09:53:06;;;;;;;16.30;10.75;;;19.60;99.90;;;;;;5016199;27;93282;-34
2022/04/13 09:55:43;;;;;;;13.43;9.45;;;19.30;99.90;;;;;;5014315;27;96148;-37
2022/04/13 09:58:13;;;;;;;11.20;10.07;;;19.10;99.90;;;;;;5015732;28;95429;-35
2022/04/13 10:00:42;;;;;;;11.35;9.30;;;18.90;99.90;;;;;;5015545;27;94053;-36
2022/04/13 10:03:17;;;;;;;15.77;9.70;;;18.80;99.90;;;;;;5015810;28;92215;-37
2022/04/13 10:05:57;;;;;;;16.58;7.97;;;18.60;99.90;;;;;;5014576;27;95122;-35
2022/04/13 10:08:25;;;;;;;13.10;6.93;;;18.70;99.90;;;;;;5015053;28;94813;-37
2022/04/13 10:10:56;;;;;;;9.45;8.45;;;18.80;99.90;;;;;;5015223;27;93964;-36
2022/04/13 10:13:34;;;;;;;9.52;7.22;;;18.70;99.90;;;;;;5015363;28;92741;-37
2022/04/13 10:16:01;;;;;;;8.27;7.45;;;18.80;99.90;;;;;;5014537;27;96454;-35
2022/04/13 10:18:33;;;;;;;20.60;9.07;;;18.90;99.90;;;;;;5015326;27;94833;-37
2022/04/13 10:20:59;;;;;;;14.70;8.85;;;18.90;99.90;;;;;;5014321;27;95371;-35
2022/04/13 10:23:25;;;;;;;10.68;7.72;;;19.30;99.90;;;;;;5015319;28;92677;-36
2022/04/13 10:26:08;;;;;;;9.00;7.28;;;19.40;99.90;;;;;;5014410;27;95063;-36
2022/04/13 10:28:45;;;;;;;8.90;7.03;;;19.80;99.90;;;;;;5015378;27;94538;-38
2022/04/13 10:31:10;;;;;;;9.02;6.75;;;19.70;99.90;;;;;;5015869;28;93252;-38
2022/04/13 10:33:46;;;;;;;7.47;6.63;;;19.90;99.90;;;;;;5014913;28;93196;-34
2022/04/13 10:36:12;;;;;;;11.25;6.82;;;19.90;99.90;;;;;;5014596;27;95429;-36
2022/04/13 10:38:37;;;;;;;9.77;6.32;;;19.90;99.90;;;;;;5014927;28;94313;-38
2022/04/13 10:41:03;;;;;;;9.75;7.63;;;20.00;99.90;;;;;;5014458;28;93515;-34
2022/04/13 10:43:30;;;;;;;12.85;6.82;;;20.00;99.90;;;;;;5015447;27;92565;-34
2022/04/13 10:45:57;;;;;;;7.68;6.82;;;19.90;99.90;;;;;;5013186;27;95655;-34
2022/04/13 10:48:29;;;;;;;7.50;5.78;;;19.80;99.90;;;;;;5014652;27;94918;-35
2022/04/13 10:51:02;;;;;;;9.02;6.28;;;19.70;99.90;;;;;;5014667;27;94233;-34
2022/04/13 10:53:29;;;;;;;6.80;6.13;;;19.50;99.90;;;;;;5014953;28;93262;-35
2022/04/13 10:56:08;;;;;;;7.40;5.28;;;19.30;99.90;;;;;;5014170;27;94878;-36
2022/04/13 10:58:55;;;;;;;9.38;8.18;;;19.30;99.90;;;;;;5014541;27;94450;-37
2022/04/13 11:01:22;;;;;;;11.70;7.45;;;19.20;99.90;;;;;;5014043;28;93345;-36
2022/04/13 11:03:48;;;;;;;14.30;6.72;;;19.20;99.90;;;;;;5015027;27;92715;-35
2022/04/13 11:06:14;;;;;;;8.93;6.47;;;19.50;99.90;;;;;;5014015;27;95019;-36
2022/04/13 11:08:47;;;;;;;12.63;8.18;;;19.40;99.90;;;;;;5014153;28;93387;-36
2022/04/13 11:11:22;;;;;;;12.50;7.85;;;19.40;99.90;;;;;;5014302;28;94583;-36
2022/04/13 11:13:50;;;;;;;8.43;7.40;;;19.30;99.90;;;;;;5014197;27;92658;-34
2022/04/13 11:16:20;;;;;;;9.35;8.30;;;19.20;99.90;;;;;;5013861;28;95028;-34
2022/04/13 11:19:08;;;;;;;16.48;7.30;;;19.10;99.90;;;;;;5013869;27;94560;-36
2022/04/13 11:21:55;;;;;;;7.70;6.63;;;19.00;99.90;;;;;;5013736;28;94443;-40
2022/04/13 11:24:35;;;;;;;6.25;5.65;;;18.90;99.90;;;;;;5014222;28;92126;-37
2022/04/13 11:27:01;;;;;;;7.90;5.00;;;19.10;99.90;;;;;;5012804;27;94768;-35
2022/04/13 11:29:36;;;;;;;8.30;4.97;;;19.20;99.90;;;;;;5014744;28;94366;-36
2022/04/13 11:32:02;;;;;;;4.70;4.03;;;19.20;99.90;;;;;;5014411;28;94372;-36
2022/04/13 11:34:41;;;;;;;4.00;3.60;;;19.00;99.90;;;;;;5014494;28;93595;-34
2022/04/13 11:37:16;;;;;;;3.33;2.92;;;19.00;99.90;;;;;;5013155;28;95739;-36
2022/04/13 11:40:09;;;;;;;7.72;3.83;;;18.90;99.90;;;;;;5012957;28;95509;-35
2022/04/13 11:42:35;;;;;;;4.80;4.30;;;18.80;99.90;;;;;;5013692;28;93501;-36
2022/04/13 11:45:03;;;;;;;5.68;2.95;;;18.80;99.90;;;;;;5014284;28;94527;-36
2022/04/13 11:47:52;;;;;;;9.77;4.22;;;18.70;99.90;;;;;;5014043;27;95503;-38
2022/04/13 11:50:17;;;;;;;4.82;3.20;;;18.80;99.90;;;;;;5013255;28;94503;-34
2022/04/13 11:52:51;;;;;;;4.57;3.65;;;18.70;99.90;;;;;;5013750;28;94012;-33
2022/04/13 11:55:42;;;;;;;6.28;3.22;;;18.70;99.90;;;;;;5014802;28;92791;-34
2022/04/13 11:58:08;;;;;;;6.05;3.63;;;18.60;99.90;;;;;;5014245;27;94016;-34
2022/04/13 12:00:55;;;;;;;6.07;3.53;;;18.40;99.90;;;;;;5013784;28;96211;-35
2022/04/13 12:03:25;;;;;;;4.22;3.08;;;18.30;99.90;;;;;;5013109;27;93779;-35
2022/04/13 12:06:02;;;;;;;8.93;5.05;;;18.30;99.90;;;;;;5013267;27;94072;-37
2022/04/13 12:08:30;;;;;;;4.57;4.18;;;18.20;99.90;;;;;;5014496;27;95129;-37
2022/04/13 12:10:58;;;;;;;6.72;5.30;;;18.20;99.90;;;;;;5013544;27;93669;-39
2022/04/13 12:13:25;;;;;;;8.88;4.53;;;18.20;99.90;;;;;;5017093;27;93556;-34
2022/04/13 12:15:54;;;;;;;5.40;4.85;;;18.10;99.90;;;;;;5016256;27;93465;-37
2022/04/13 12:18:21;;;;;;;4.97;3.97;;;18.30;99.90;;;;;;5016758;27;94606;-38
2022/04/13 12:20:48;;;;;;;13.97;6.10;;;18.30;99.90;;;;;;5017415;28;94739;-37
2022/04/13 12:23:25;;;;;;;10.45;5.68;;;18.50;99.90;;;;;;5016986;27;93814;-37
2022/04/13 12:25:56;;;;;;;8.10;6.65;;;18.60;99.90;;;;;;5016352;27;93709;-37
2022/04/13 12:28:23;;;;;;;16.35;8.57;;;18.50;99.90;;;;;;5023041;22;95871;-39
2022/04/13 12:31:10;;;;;;;6.43;5.82;;;18.50;99.90;;;;;;4976756;28;95368;-36
2022/04/13 12:33:38;;;;;;;11.15;6.38;;;18.40;99.90;;;;;;4977123;28;92180;-35
2022/04/13 12:36:06;;;;;;;10.77;7.32;;;18.50;99.90;;;;;;4976295;28;94705;-34
2022/04/13 12:38:38;;;;;;;;;;;18.30;99.90;;;;;;4976622;28;94341;-39